sensor_id;sensor_type;location;lat;lon;timestamp;temperature;humidity
19892;DHT22;10108;50.142;8.724;2022-08-19T00:01:23;22.40;99.90
19892;DHT22;10108;50.142;8.724;2022-08-19T00:03:50;22.40;99.90
19892;DHT22;10108;50.142;8.724;2022-08-19T00:06:16;22.40;99.90
19892;DHT22;10108;50.142;8.724;2022-08-19T00:08:42;22.40;99.90
19892;DHT22;10108;50.142;8.724;2022-08-19T00:11:09;22.40;99.90
19892;DHT22;10108;50.142;8.724;2022-08-19T00:13:35;22.40;99.90
19892;DHT22;10108;50.142;8.724;2022-08-19T00:16:02;22.50;99.90
19892;DHT22;10108;50.142;8.724;2022-08-19T00:18:28;22.40;99.90
19892;DHT22;10108;50.142;8.724;2022-08-19T00:20:54;22.40;99.90
19892;DHT22;10108;50.142;8.724;2022-08-19T00:23:21;22.40;99.90
19892;DHT22;10108;50.142;8.724;2022-08-19T00:25:47;22.50;99.90
19892;DHT22;10108;50.142;8.724;2022-08-19T00:28:13;22.50;99.90
19892;DHT22;10108;50.142;8.724;2022-08-19T00:30:39;22.50;99.90
19892;DHT22;10108;50.142;8.724;2022-08-19T00:33:06;22.50;99.90
19892;DHT22;10108;50.142;8.724;2022-08-19T00:35:34;22.50;99.90
19892;DHT22;10108;50.142;8.724;2022-08-19T00:38:00;22.50;99.90
19892;DHT22;10108;50.142;8.724;2022-08-19T00:40:26;22.50;99.90
19892;DHT22;10108;50.142;8.724;2022-08-19T00:42:52;22.50;99.90
19892;DHT22;10108;50.142;8.724;2022-08-19T00:45:24;22.50;99.90
19892;DHT22;10108;50.142;8.724;2022-08-19T00:47:51;22.50;99.90
19892;DHT22;10108;50.142;8.724;2022-08-19T00:50:19;22.50;99.90
19892;DHT22;10108;50.142;8.724;2022-08-19T00:52:48;22.50;99.90
19892;DHT22;10108;50.142;8.724;2022-08-19T00:55:21;22.50;99.90
19892;DHT22;10108;50.142;8.724;2022-08-19T00:57:53;22.50;99.90
19892;DHT22;10108;50.142;8.724;2022-08-19T01:00:22;22.50;99.90
19892;DHT22;10108;50.142;8.724;2022-08-19T01:02:49;22.50;99.90
19892;DHT22;10108;50.142;8.724;2022-08-19T01:05:22;22.50;99.90
19892;DHT22;10108;50.142;8.724;2022-08-19T01:07:50;22.50;99.90
19892;DHT22;10108;50.142;8.724;2022-08-19T01:10:20;22.50;99.90
19892;DHT22;10108;50.142;8.724;2022-08-19T01:12:48;22.50;99.90
19892;DHT22;10108;50.142;8.724;2022-08-19T01:15:18;22.50;99.90
19892;DHT22;10108;50.142;8.724;2022-08-19T01:17:45;22.50;99.90
19892;DHT22;10108;50.142;8.724;2022-08-19T01:20:17;22.50;99.90
19892;DHT22;10108;50.142;8.724;2022-08-19T01:22:53;22.50;99.90
19892;DHT22;10108;50.142;8.724;2022-08-19T01:25:22;22.50;99.90
19892;DHT22;10108;50.142;8.724;2022-08-19T01:27:51;22.50;99.90
19892;DHT22;10108;50.142;8.724;2022-08-19T01:30:24;22.50;99.90
19892;DHT22;10108;50.142;8.724;2022-08-19T01:32:51;22.50;99.90
19892;DHT22;10108;50.142;8.724;2022-08-19T01:35:19;22.50;99.90
19892;DHT22;10108;50.142;8.724;2022-08-19T01:37:48;22.50;99.90
19892;DHT22;10108;50.142;8.724;2022-08-19T01:40:16;22.50;99.90
19892;DHT22;10108;50.142;8.724;2022-08-19T01:42:43;22.50;99.90
19892;DHT22;10108;50.142;8.724;2022-08-19T01:45:09;22.50;99.90
19892;DHT22;10108;50.142;8.724;2022-08-19T01:47:36;22.50;99.90
19892;DHT22;10108;50.142;8.724;2022-08-19T01:50:04;22.50;99.90
19892;DHT22;10108;50.142;8.724;2022-08-19T01:52:31;22.50;99.90
19892;DHT22;10108;50.142;8.724;2022-08-19T01:54:57;22.50;99.90
19892;DHT22;10108;50.142;8.724;2022-08-19T01:57:23;22.50;99.90
19892;DHT22;10108;50.142;8.724;2022-08-19T01:59:49;22.50;99.90
19892;DHT22;10108;50.142;8.724;2022-08-19T02:02:16;22.50;99.90
19892;DHT22;10108;50.142;8.724;2022-08-19T02:04:42;22.50;99.90
19892;DHT22;10108;50.142;8.724;2022-08-19T02:07:08;22.40;99.90
19892;DHT22;10108;50.142;8.724;2022-08-19T02:09:35;22.40;99.90
19892;DHT22;10108;50.142;8.724;2022-08-19T02:12:02;22.40;99.90
19892;DHT22;10108;50.142;8.724;2022-08-19T02:14:28;22.40;99.90
19892;DHT22;10108;50.142;8.724;2022-08-19T02:16:54;22.40;99.90
19892;DHT22;10108;50.142;8.724;2022-08-19T02:19:20;22.40;99.90
19892;DHT22;10108;50.142;8.724;2022-08-19T02:21:46;22.40;99.90
19892;DHT22;10108;50.142;8.724;2022-08-19T02:24:12;22.40;99.90
19892;DHT22;10108;50.142;8.724;2022-08-19T02:26:39;22.40;99.90
19892;DHT22;10108;50.142;8.724;2022-08-19T02:29:05;22.40;99.90
19892;DHT22;10108;50.142;8.724;2022-08-19T02:31:31;22.40;99.90
19892;DHT22;10108;50.142;8.724;2022-08-19T02:33:57;22.40;99.90
19892;DHT22;10108;50.142;8.724;2022-08-19T02:36:24;22.40;99.90
19892;DHT22;10108;50.142;8.724;2022-08-19T02:38:51;22.40;99.90
19892;DHT22;10108;50.142;8.724;2022-08-19T02:41:21;22.40;99.90
19892;DHT22;10108;50.142;8.724;2022-08-19T02:43:48;22.30;99.90
19892;DHT22;10108;50.142;8.724;2022-08-19T02:46:35;22.30;99.90
19892;DHT22;10108;50.142;8.724;2022-08-19T02:49:05;22.30;99.90
19892;DHT22;10108;50.142;8.724;2022-08-19T02:51:35;22.20;99.90
19892;DHT22;10108;50.142;8.724;2022-08-19T02:54:02;22.20;99.90
19892;DHT22;10108;50.142;8.724;2022-08-19T02:56:28;22.20;99.90
19892;DHT22;10108;50.142;8.724;2022-08-19T02:58:55;22.20;99.90
19892;DHT22;10108;50.142;8.724;2022-08-19T03:01:28;22.20;99.90
19892;DHT22;10108;50.142;8.724;2022-08-19T03:03:58;22.20;99.90
19892;DHT22;10108;50.142;8.724;2022-08-19T03:06:25;22.20;99.90
19892;DHT22;10108;50.142;8.724;2022-08-19T03:08:52;22.20;99.90
19892;DHT22;10108;50.142;8.724;2022-08-19T03:11:22;22.10;99.90
19892;DHT22;10108;50.142;8.724;2022-08-19T03:13:49;22.10;99.90
19892;DHT22;10108;50.142;8.724;2022-08-19T03:16:18;22.10;99.90
19892;DHT22;10108;50.142;8.724;2022-08-19T03:18:44;22.00;99.90
19892;DHT22;10108;50.142;8.724;2022-08-19T03:21:22;22.10;99.90
19892;DHT22;10108;50.142;8.724;2022-08-19T03:23:50;22.00;99.90
19892;DHT22;10108;50.142;8.724;2022-08-19T03:26:19;22.00;99.90
19892;DHT22;10108;50.142;8.724;2022-08-19T03:28:46;22.00;99.90
19892;DHT22;10108;50.142;8.724;2022-08-19T03:31:18;22.10;99.90
19892;DHT22;10108;50.142;8.724;2022-08-19T03:33:45;22.10;99.90
19892;DHT22;10108;50.142;8.724;2022-08-19T03:36:24;22.10;99.90
19892;DHT22;10108;50.142;8.724;2022-08-19T03:38:58;22.00;99.90
19892;DHT22;10108;50.142;8.724;2022-08-19T03:41:29;22.00;99.90
19892;DHT22;10108;50.142;8.724;2022-08-19T03:43:56;22.00;99.90
19892;DHT22;10108;50.142;8.724;2022-08-19T03:46:28;22.00;99.90
19892;DHT22;10108;50.142;8.724;2022-08-19T03:48:57;22.00;99.90
19892;DHT22;10108;50.142;8.724;2022-08-19T03:51:33;22.00;99.90
19892;DHT22;10108;50.142;8.724;2022-08-19T03:54:03;22.10;99.90
19892;DHT22;10108;50.142;8.724;2022-08-19T03:56:30;22.10;99.90
19892;DHT22;10108;50.142;8.724;2022-08-19T03:58:57;22.10;99.90
19892;DHT22;10108;50.142;8.724;2022-08-19T04:01:26;22.10;99.90
19892;DHT22;10108;50.142;8.724;2022-08-19T04:03:55;22.10;99.90
19892;DHT22;10108;50.142;8.724;2022-08-19T04:06:24;22.10;99.90
19892;DHT22;10108;50.142;8.724;2022-08-19T04:08:52;22.10;99.90
19892;DHT22;10108;50.142;8.724;2022-08-19T04:11:28;22.00;99.90
19892;DHT22;10108;50.142;8.724;2022-08-19T04:13:55;22.00;99.90
19892;DHT22;10108;50.142;8.724;2022-08-19T04:16:24;22.00;99.90
19892;DHT22;10108;50.142;8.724;2022-08-19T04:18:55;22.00;99.90
19892;DHT22;10108;50.142;8.724;2022-08-19T04:21:25;22.00;99.90
19892;DHT22;10108;50.142;8.724;2022-08-19T04:23:52;22.00;99.90
19892;DHT22;10108;50.142;8.724;2022-08-19T04:26:23;22.00;99.90
19892;DHT22;10108;50.142;8.724;2022-08-19T04:28:49;22.00;99.90
19892;DHT22;10108;50.142;8.724;2022-08-19T04:31:23;22.00;99.90
19892;DHT22;10108;50.142;8.724;2022-08-19T04:33:53;22.00;99.90
19892;DHT22;10108;50.142;8.724;2022-08-19T04:36:22;22.00;99.90
19892;DHT22;10108;50.142;8.724;2022-08-19T04:38:49;21.90;99.90
19892;DHT22;10108;50.142;8.724;2022-08-19T04:41:16;21.90;99.90
19892;DHT22;10108;50.142;8.724;2022-08-19T04:44:01;21.90;99.90
19892;DHT22;10108;50.142;8.724;2022-08-19T04:46:28;21.90;99.90
19892;DHT22;10108;50.142;8.724;2022-08-19T04:48:56;21.90;99.90
19892;DHT22;10108;50.142;8.724;2022-08-19T04:51:23;21.90;99.90
19892;DHT22;10108;50.142;8.724;2022-08-19T04:53:49;21.80;99.90
19892;DHT22;10108;50.142;8.724;2022-08-19T04:56:17;21.90;99.90
19892;DHT22;10108;50.142;8.724;2022-08-19T04:58:45;21.90;99.90
19892;DHT22;10108;50.142;8.724;2022-08-19T05:01:13;21.90;99.90
19892;DHT22;10108;50.142;8.724;2022-08-19T05:03:40;21.90;99.90
19892;DHT22;10108;50.142;8.724;2022-08-19T05:06:09;21.90;99.90
19892;DHT22;10108;50.142;8.724;2022-08-19T05:08:37;21.90;99.90
19892;DHT22;10108;50.142;8.724;2022-08-19T05:11:12;21.90;99.90
19892;DHT22;10108;50.142;8.724;2022-08-19T05:13:39;21.90;99.90
19892;DHT22;10108;50.142;8.724;2022-08-19T05:16:06;21.90;99.90
19892;DHT22;10108;50.142;8.724;2022-08-19T05:18:32;21.90;99.90
19892;DHT22;10108;50.142;8.724;2022-08-19T05:21:19;21.90;99.90
19892;DHT22;10108;50.142;8.724;2022-08-19T05:24:05;21.90;99.90
19892;DHT22;10108;50.142;8.724;2022-08-19T05:26:39;21.90;99.90
19892;DHT22;10108;50.142;8.724;2022-08-19T05:29:07;21.90;99.90
19892;DHT22;10108;50.142;8.724;2022-08-19T05:31:35;21.90;99.90
19892;DHT22;10108;50.142;8.724;2022-08-19T05:34:02;22.00;99.90
19892;DHT22;10108;50.142;8.724;2022-08-19T05:36:34;22.00;99.90
19892;DHT22;10108;50.142;8.724;2022-08-19T05:39:03;22.00;99.90
19892;DHT22;10108;50.142;8.724;2022-08-19T05:41:29;22.00;99.90
19892;DHT22;10108;50.142;8.724;2022-08-19T05:43:57;22.10;99.90
19892;DHT22;10108;50.142;8.724;2022-08-19T05:46:23;22.10;99.90
19892;DHT22;10108;50.142;8.724;2022-08-19T05:48:50;22.10;99.90
19892;DHT22;10108;50.142;8.724;2022-08-19T05:51:16;22.10;99.90
19892;DHT22;10108;50.142;8.724;2022-08-19T05:53:42;22.10;99.90
19892;DHT22;10108;50.142;8.724;2022-08-19T05:56:13;22.20;99.90
19892;DHT22;10108;50.142;8.724;2022-08-19T05:58:43;22.10;99.90
19892;DHT22;10108;50.142;8.724;2022-08-19T06:01:13;22.10;99.90
19892;DHT22;10108;50.142;8.724;2022-08-19T06:03:39;22.20;99.90
19892;DHT22;10108;50.142;8.724;2022-08-19T06:06:07;22.20;99.90
19892;DHT22;10108;50.142;8.724;2022-08-19T06:08:35;22.20;99.90
19892;DHT22;10108;50.142;8.724;2022-08-19T06:13:50;22.20;99.90
19892;DHT22;10108;50.142;8.724;2022-08-19T06:16:19;22.20;99.90
19892;DHT22;10108;50.142;8.724;2022-08-19T06:18:52;22.20;99.90
19892;DHT22;10108;50.142;8.724;2022-08-19T06:21:20;22.20;99.90
19892;DHT22;10108;50.142;8.724;2022-08-19T06:23:47;22.20;99.90
19892;DHT22;10108;50.142;8.724;2022-08-19T06:26:14;22.20;99.90
19892;DHT22;10108;50.142;8.724;2022-08-19T06:28:41;22.20;99.90
19892;DHT22;10108;50.142;8.724;2022-08-19T06:31:17;22.20;99.90
19892;DHT22;10108;50.142;8.724;2022-08-19T06:33:44;22.30;99.90
19892;DHT22;10108;50.142;8.724;2022-08-19T06:36:26;22.30;99.90
19892;DHT22;10108;50.142;8.724;2022-08-19T06:38:56;22.30;99.90
19892;DHT22;10108;50.142;8.724;2022-08-19T06:41:25;22.30;99.90
19892;DHT22;10108;50.142;8.724;2022-08-19T06:43:53;22.30;99.90
19892;DHT22;10108;50.142;8.724;2022-08-19T06:46:19;22.30;99.90
19892;DHT22;10108;50.142;8.724;2022-08-19T06:48:46;22.30;99.90
19892;DHT22;10108;50.142;8.724;2022-08-19T06:51:15;22.40;99.90
19892;DHT22;10108;50.142;8.724;2022-08-19T06:53:48;22.40;99.90
19892;DHT22;10108;50.142;8.724;2022-08-19T06:56:16;22.40;99.90
19892;DHT22;10108;50.142;8.724;2022-08-19T06:58:43;22.40;99.90
19892;DHT22;10108;50.142;8.724;2022-08-19T07:01:09;22.40;99.90
19892;DHT22;10108;50.142;8.724;2022-08-19T07:03:37;22.40;99.90
19892;DHT22;10108;50.142;8.724;2022-08-19T07:06:12;22.40;99.90
19892;DHT22;10108;50.142;8.724;2022-08-19T07:08:41;22.40;99.90
19892;DHT22;10108;50.142;8.724;2022-08-19T07:11:10;22.40;99.90
19892;DHT22;10108;50.142;8.724;2022-08-19T07:13:39;22.50;99.90
19892;DHT22;10108;50.142;8.724;2022-08-19T07:16:07;22.50;99.90
19892;DHT22;10108;50.142;8.724;2022-08-19T07:18:34;22.50;99.90
19892;DHT22;10108;50.142;8.724;2022-08-19T07:21:11;22.50;99.90
19892;DHT22;10108;50.142;8.724;2022-08-19T07:23:37;22.50;99.90
19892;DHT22;10108;50.142;8.724;2022-08-19T07:26:14;22.50;99.90
19892;DHT22;10108;50.142;8.724;2022-08-19T07:28:41;22.50;99.90
19892;DHT22;10108;50.142;8.724;2022-08-19T07:31:13;22.50;99.90
19892;DHT22;10108;50.142;8.724;2022-08-19T07:33:40;22.50;99.90
19892;DHT22;10108;50.142;8.724;2022-08-19T07:36:10;22.60;99.90
19892;DHT22;10108;50.142;8.724;2022-08-19T07:38:38;22.60;99.90
19892;DHT22;10108;50.142;8.724;2022-08-19T07:41:05;22.60;99.90
19892;DHT22;10108;50.142;8.724;2022-08-19T07:43:32;22.60;99.90
19892;DHT22;10108;50.142;8.724;2022-08-19T07:45:58;22.60;99.90
19892;DHT22;10108;50.142;8.724;2022-08-19T07:48:26;22.70;99.90
19892;DHT22;10108;50.142;8.724;2022-08-19T07:50:54;22.70;99.90
19892;DHT22;10108;50.142;8.724;2022-08-19T07:53:21;22.80;99.90
19892;DHT22;10108;50.142;8.724;2022-08-19T07:55:47;22.80;99.90
19892;DHT22;10108;50.142;8.724;2022-08-19T07:58:17;22.90;99.90
19892;DHT22;10108;50.142;8.724;2022-08-19T08:00:46;22.90;99.90
19892;DHT22;10108;50.142;8.724;2022-08-19T08:03:14;22.90;99.90
19892;DHT22;10108;50.142;8.724;2022-08-19T08:05:41;22.90;99.90
19892;DHT22;10108;50.142;8.724;2022-08-19T08:08:26;23.00;99.90
19892;DHT22;10108;50.142;8.724;2022-08-19T08:11:01;23.00;99.90
19892;DHT22;10108;50.142;8.724;2022-08-19T08:13:28;23.00;99.90
19892;DHT22;10108;50.142;8.724;2022-08-19T08:15:54;23.10;99.90
19892;DHT22;10108;50.142;8.724;2022-08-19T08:18:20;23.20;99.90
19892;DHT22;10108;50.142;8.724;2022-08-19T08:20:47;23.20;99.90
19892;DHT22;10108;50.142;8.724;2022-08-19T08:23:13;23.30;99.90
19892;DHT22;10108;50.142;8.724;2022-08-19T08:25:48;23.30;99.90
19892;DHT22;10108;50.142;8.724;2022-08-19T08:28:16;23.30;99.90
19892;DHT22;10108;50.142;8.724;2022-08-19T08:30:42;23.40;99.90
19892;DHT22;10108;50.142;8.724;2022-08-19T08:33:09;23.40;99.90
19892;DHT22;10108;50.142;8.724;2022-08-19T08:35:36;23.50;99.90
19892;DHT22;10108;50.142;8.724;2022-08-19T08:38:02;23.50;99.90
19892;DHT22;10108;50.142;8.724;2022-08-19T08:43:29;23.70;99.90
19892;DHT22;10108;50.142;8.724;2022-08-19T08:46:14;23.70;99.90
19892;DHT22;10108;50.142;8.724;2022-08-19T08:51:42;23.80;99.90
19892;DHT22;10108;50.142;8.724;2022-08-19T08:54:13;23.80;99.90
19892;DHT22;10108;50.142;8.724;2022-08-19T08:56:41;23.80;99.90
19892;DHT22;10108;50.142;8.724;2022-08-19T08:59:28;23.80;99.70
19892;DHT22;10108;50.142;8.724;2022-08-19T09:01:59;23.70;99.80
19892;DHT22;10108;50.142;8.724;2022-08-19T09:04:25;23.70;99.90
19892;DHT22;10108;50.142;8.724;2022-08-19T09:07:00;23.60;99.90
19892;DHT22;10108;50.142;8.724;2022-08-19T09:09:41;23.60;99.90
19892;DHT22;10108;50.142;8.724;2022-08-19T09:14:49;23.60;99.90
19892;DHT22;10108;50.142;8.724;2022-08-19T09:17:16;23.60;99.90
19892;DHT22;10108;50.142;8.724;2022-08-19T09:19:56;23.70;99.90
19892;DHT22;10108;50.142;8.724;2022-08-19T09:22:23;23.80;99.90
19892;DHT22;10108;50.142;8.724;2022-08-19T09:24:50;23.80;99.90
19892;DHT22;10108;50.142;8.724;2022-08-19T09:27:19;23.90;99.70
19892;DHT22;10108;50.142;8.724;2022-08-19T09:29:46;23.90;99.90
19892;DHT22;10108;50.142;8.724;2022-08-19T09:32:15;24.10;99.50
19892;DHT22;10108;50.142;8.724;2022-08-19T09:34:41;24.10;99.50
19892;DHT22;10108;50.142;8.724;2022-08-19T09:37:07;24.10;99.30
19892;DHT22;10108;50.142;8.724;2022-08-19T09:39:34;24.10;99.10
19892;DHT22;10108;50.142;8.724;2022-08-19T09:42:00;24.20;99.00
19892;DHT22;10108;50.142;8.724;2022-08-19T09:44:26;24.20;99.10
19892;DHT22;10108;50.142;8.724;2022-08-19T09:46:52;24.30;99.30
19892;DHT22;10108;50.142;8.724;2022-08-19T09:49:19;24.30;99.80
19892;DHT22;10108;50.142;8.724;2022-08-19T09:51:51;24.30;99.60
19892;DHT22;10108;50.142;8.724;2022-08-19T09:54:22;24.30;99.80
19892;DHT22;10108;50.142;8.724;2022-08-19T09:56:49;24.20;99.80
19892;DHT22;10108;50.142;8.724;2022-08-19T09:59:15;24.20;99.90
19892;DHT22;10108;50.142;8.724;2022-08-19T10:01:42;24.20;99.70
19892;DHT22;10108;50.142;8.724;2022-08-19T10:04:08;24.20;99.90
19892;DHT22;10108;50.142;8.724;2022-08-19T10:06:36;24.20;99.90
19892;DHT22;10108;50.142;8.724;2022-08-19T10:09:04;24.20;99.90
19892;DHT22;10108;50.142;8.724;2022-08-19T10:11:33;24.20;99.20
19892;DHT22;10108;50.142;8.724;2022-08-19T10:14:01;24.20;99.00
19892;DHT22;10108;50.142;8.724;2022-08-19T10:16:28;24.30;99.90
19892;DHT22;10108;50.142;8.724;2022-08-19T10:18:54;24.30;99.90
19892;DHT22;10108;50.142;8.724;2022-08-19T10:21:24;24.40;99.90
19892;DHT22;10108;50.142;8.724;2022-08-19T10:23:53;24.30;99.90
19892;DHT22;10108;50.142;8.724;2022-08-19T10:26:23;24.30;99.90
19892;DHT22;10108;50.142;8.724;2022-08-19T10:28:50;24.20;99.90
19892;DHT22;10108;50.142;8.724;2022-08-19T10:31:22;24.20;99.90
19892;DHT22;10108;50.142;8.724;2022-08-19T10:33:50;24.20;99.90
19892;DHT22;10108;50.142;8.724;2022-08-19T10:36:19;24.20;99.90
19892;DHT22;10108;50.142;8.724;2022-08-19T10:38:47;24.10;99.90
19892;DHT22;10108;50.142;8.724;2022-08-19T10:41:20;24.10;99.90
19892;DHT22;10108;50.142;8.724;2022-08-19T10:43:51;24.20;99.70
19892;DHT22;10108;50.142;8.724;2022-08-19T10:46:18;24.20;99.00
19892;DHT22;10108;50.142;8.724;2022-08-19T10:48:44;24.30;99.00
19892;DHT22;10108;50.142;8.724;2022-08-19T10:51:11;24.30;99.30
19892;DHT22;10108;50.142;8.724;2022-08-19T10:53:57;24.30;99.20
19892;DHT22;10108;50.142;8.724;2022-08-19T10:56:24;24.30;99.00
19892;DHT22;10108;50.142;8.724;2022-08-19T10:59:09;24.30;99.00
19892;DHT22;10108;50.142;8.724;2022-08-19T11:01:35;24.30;99.60
19892;DHT22;10108;50.142;8.724;2022-08-19T11:04:03;24.40;99.00
19892;DHT22;10108;50.142;8.724;2022-08-19T11:06:31;24.40;98.40
19892;DHT22;10108;50.142;8.724;2022-08-19T11:08:58;24.50;98.40
19892;DHT22;10108;50.142;8.724;2022-08-19T11:11:26;24.60;98.50
19892;DHT22;10108;50.142;8.724;2022-08-19T11:13:54;24.70;98.10
19892;DHT22;10108;50.142;8.724;2022-08-19T11:16:23;24.80;98.10
19892;DHT22;10108;50.142;8.724;2022-08-19T11:18:53;24.80;97.30
19892;DHT22;10108;50.142;8.724;2022-08-19T11:24:23;24.80;96.40
19892;DHT22;10108;50.142;8.724;2022-08-19T11:26:51;24.80;96.60
19892;DHT22;10108;50.142;8.724;2022-08-19T11:29:20;24.80;96.50
19892;DHT22;10108;50.142;8.724;2022-08-19T11:31:48;24.70;96.10
19892;DHT22;10108;50.142;8.724;2022-08-19T11:34:26;24.80;96.10
19892;DHT22;10108;50.142;8.724;2022-08-19T11:36:54;24.80;96.20
19892;DHT22;10108;50.142;8.724;2022-08-19T11:39:24;24.90;96.50
19892;DHT22;10108;50.142;8.724;2022-08-19T11:41:50;24.90;96.10
19892;DHT22;10108;50.142;8.724;2022-08-19T11:44:17;25.00;95.80
19892;DHT22;10108;50.142;8.724;2022-08-19T11:46:44;25.00;95.80
19892;DHT22;10108;50.142;8.724;2022-08-19T11:49:14;25.00;96.50
19892;DHT22;10108;50.142;8.724;2022-08-19T11:51:41;25.10;95.60
19892;DHT22;10108;50.142;8.724;2022-08-19T11:54:11;25.10;95.00
19892;DHT22;10108;50.142;8.724;2022-08-19T11:56:39;25.10;94.80
19892;DHT22;10108;50.142;8.724;2022-08-19T11:59:05;25.10;95.10
19892;DHT22;10108;50.142;8.724;2022-08-19T12:01:31;25.00;95.10
19892;DHT22;10108;50.142;8.724;2022-08-19T12:03:58;24.90;95.00
19892;DHT22;10108;50.142;8.724;2022-08-19T12:06:29;24.90;94.90
19892;DHT22;10108;50.142;8.724;2022-08-19T12:08:57;24.80;95.80
19892;DHT22;10108;50.142;8.724;2022-08-19T12:11:25;24.70;97.00
19892;DHT22;10108;50.142;8.724;2022-08-19T12:13:52;24.70;96.50
19892;DHT22;10108;50.142;8.724;2022-08-19T12:16:23;24.70;95.90
19892;DHT22;10108;50.142;8.724;2022-08-19T12:18:50;24.70;96.00
19892;DHT22;10108;50.142;8.724;2022-08-19T12:21:24;24.80;96.70
19892;DHT22;10108;50.142;8.724;2022-08-19T12:23:55;24.80;95.20
19892;DHT22;10108;50.142;8.724;2022-08-19T12:26:23;25.00;93.70
19892;DHT22;10108;50.142;8.724;2022-08-19T12:28:49;25.10;93.90
19892;DHT22;10108;50.142;8.724;2022-08-19T12:31:15;25.20;93.20
19892;DHT22;10108;50.142;8.724;2022-08-19T12:33:42;25.20;92.70
19892;DHT22;10108;50.142;8.724;2022-08-19T12:36:11;25.20;92.70
19892;DHT22;10108;50.142;8.724;2022-08-19T12:38:39;25.20;93.70
19892;DHT22;10108;50.142;8.724;2022-08-19T12:41:09;25.30;92.60
19892;DHT22;10108;50.142;8.724;2022-08-19T12:43:36;25.30;92.10
19892;DHT22;10108;50.142;8.724;2022-08-19T12:46:04;25.30;91.50
19892;DHT22;10108;50.142;8.724;2022-08-19T12:48:32;25.40;91.00
19892;DHT22;10108;50.142;8.724;2022-08-19T12:50:58;25.40;91.50
19892;DHT22;10108;50.142;8.724;2022-08-19T12:53:24;25.40;91.40
19892;DHT22;10108;50.142;8.724;2022-08-19T12:55:58;25.40;88.50
19892;DHT22;10108;50.142;8.724;2022-08-19T12:58:26;25.50;90.10
19892;DHT22;10108;50.142;8.724;2022-08-19T13:00:52;25.50;90.70
19892;DHT22;10108;50.142;8.724;2022-08-19T13:03:18;25.50;91.10
19892;DHT22;10108;50.142;8.724;2022-08-19T13:05:44;25.50;91.00
19892;DHT22;10108;50.142;8.724;2022-08-19T13:08:11;25.40;90.60
19892;DHT22;10108;50.142;8.724;2022-08-19T13:10:37;25.30;92.80
19892;DHT22;10108;50.142;8.724;2022-08-19T13:13:06;25.20;94.50
19892;DHT22;10108;50.142;8.724;2022-08-19T13:15:38;25.10;94.60
19892;DHT22;10108;50.142;8.724;2022-08-19T13:18:06;24.90;94.70
19892;DHT22;10108;50.142;8.724;2022-08-19T13:20:35;24.90;93.90
19892;DHT22;10108;50.142;8.724;2022-08-19T13:23:01;24.90;93.30
19892;DHT22;10108;50.142;8.724;2022-08-19T13:25:28;24.90;96.10
19892;DHT22;10108;50.142;8.724;2022-08-19T13:27:54;24.90;96.10
19892;DHT22;10108;50.142;8.724;2022-08-19T13:30:21;25.00;96.30
19892;DHT22;10108;50.142;8.724;2022-08-19T13:33:07;25.10;92.50
19892;DHT22;10108;50.142;8.724;2022-08-19T13:35:46;25.10;96.00
19892;DHT22;10108;50.142;8.724;2022-08-19T13:38:15;25.10;95.60
19892;DHT22;10108;50.142;8.724;2022-08-19T13:40:42;25.00;93.70
19892;DHT22;10108;50.142;8.724;2022-08-19T13:43:09;24.90;95.50
19892;DHT22;10108;50.142;8.724;2022-08-19T13:45:35;24.90;94.40
19892;DHT22;10108;50.142;8.724;2022-08-19T13:48:04;24.90;95.60
19892;DHT22;10108;50.142;8.724;2022-08-19T13:50:44;24.90;95.50
19892;DHT22;10108;50.142;8.724;2022-08-19T13:53:12;24.90;95.40
19892;DHT22;10108;50.142;8.724;2022-08-19T13:55:40;25.00;94.90
19892;DHT22;10108;50.142;8.724;2022-08-19T13:58:06;25.00;95.70
19892;DHT22;10108;50.142;8.724;2022-08-19T14:00:36;25.00;95.50
19892;DHT22;10108;50.142;8.724;2022-08-19T14:03:03;25.00;96.50
19892;DHT22;10108;50.142;8.724;2022-08-19T14:05:30;24.90;94.90
19892;DHT22;10108;50.142;8.724;2022-08-19T14:07:57;25.00;97.00
19892;DHT22;10108;50.142;8.724;2022-08-19T14:10:23;24.90;96.50
19892;DHT22;10108;50.142;8.724;2022-08-19T14:12:54;24.90;99.30
19892;DHT22;10108;50.142;8.724;2022-08-19T14:15:21;24.90;98.70
19892;DHT22;10108;50.142;8.724;2022-08-19T14:17:49;24.90;97.10
19892;DHT22;10108;50.142;8.724;2022-08-19T14:20:15;24.90;95.50
19892;DHT22;10108;50.142;8.724;2022-08-19T14:22:43;24.90;94.30
19892;DHT22;10108;50.142;8.724;2022-08-19T14:25:12;25.00;96.50
19892;DHT22;10108;50.142;8.724;2022-08-19T14:27:40;25.10;96.10
19892;DHT22;10108;50.142;8.724;2022-08-19T14:30:09;25.10;96.60
19892;DHT22;10108;50.142;8.724;2022-08-19T14:32:36;25.10;96.60
19892;DHT22;10108;50.142;8.724;2022-08-19T14:35:03;25.00;95.50
19892;DHT22;10108;50.142;8.724;2022-08-19T14:37:30;25.00;94.30
19892;DHT22;10108;50.142;8.724;2022-08-19T14:39:56;25.00;97.20
19892;DHT22;10108;50.142;8.724;2022-08-19T14:42:22;25.00;95.70
19892;DHT22;10108;50.142;8.724;2022-08-19T14:44:48;25.00;93.20
19892;DHT22;10108;50.142;8.724;2022-08-19T14:47:14;25.00;93.10
19892;DHT22;10108;50.142;8.724;2022-08-19T14:49:40;25.00;94.30
19892;DHT22;10108;50.142;8.724;2022-08-19T14:52:06;25.00;94.20
19892;DHT22;10108;50.142;8.724;2022-08-19T14:54:34;25.00;94.90
19892;DHT22;10108;50.142;8.724;2022-08-19T14:57:00;25.00;93.20
19892;DHT22;10108;50.142;8.724;2022-08-19T14:59:26;25.10;92.40
19892;DHT22;10108;50.142;8.724;2022-08-19T15:01:52;25.10;91.60
19892;DHT22;10108;50.142;8.724;2022-08-19T15:04:18;25.20;92.60
19892;DHT22;10108;50.142;8.724;2022-08-19T15:06:44;25.20;96.20
19892;DHT22;10108;50.142;8.724;2022-08-19T15:09:11;25.10;93.30
19892;DHT22;10108;50.142;8.724;2022-08-19T15:11:37;25.10;93.00
19892;DHT22;10108;50.142;8.724;2022-08-19T15:14:04;25.10;91.90
19892;DHT22;10108;50.142;8.724;2022-08-19T15:16:32;25.10;92.40
19892;DHT22;10108;50.142;8.724;2022-08-19T15:18:58;25.10;90.60
19892;DHT22;10108;50.142;8.724;2022-08-19T15:21:26;25.20;87.40
19892;DHT22;10108;50.142;8.724;2022-08-19T15:23:53;25.30;86.20
19892;DHT22;10108;50.142;8.724;2022-08-19T15:26:20;25.30;88.40
19892;DHT22;10108;50.142;8.724;2022-08-19T15:28:46;25.30;88.60
19892;DHT22;10108;50.142;8.724;2022-08-19T15:31:15;25.50;91.10
19892;DHT22;10108;50.142;8.724;2022-08-19T15:33:42;25.50;88.30
19892;DHT22;10108;50.142;8.724;2022-08-19T15:36:09;25.50;90.30
19892;DHT22;10108;50.142;8.724;2022-08-19T15:38:38;25.40;92.50
19892;DHT22;10108;50.142;8.724;2022-08-19T15:41:05;25.30;94.00
19892;DHT22;10108;50.142;8.724;2022-08-19T15:43:53;25.20;92.40
19892;DHT22;10108;50.142;8.724;2022-08-19T15:46:22;25.20;90.70
19892;DHT22;10108;50.142;8.724;2022-08-19T15:48:50;25.30;90.20
19892;DHT22;10108;50.142;8.724;2022-08-19T15:51:17;25.30;90.50
19892;DHT22;10108;50.142;8.724;2022-08-19T15:53:43;25.40;90.00